sensor_id;sensor_type;location;lat;lon;timestamp;temperature;humidity
23301;DHT22;11819;51.394;12.340;2023-02-13T00:01:16;8.20;98.10
23301;DHT22;11819;51.394;12.340;2023-02-13T00:03:42;8.20;98.20
23301;DHT22;11819;51.394;12.340;2023-02-13T00:06:08;8.20;98.20
23301;DHT22;11819;51.394;12.340;2023-02-13T00:08:34;8.20;98.20
23301;DHT22;11819;51.394;12.340;2023-02-13T00:11:01;8.20;98.30
23301;DHT22;11819;51.394;12.340;2023-02-13T00:13:27;8.20;98.30
23301;DHT22;11819;51.394;12.340;2023-02-13T00:16:02;8.20;98.40
23301;DHT22;11819;51.394;12.340;2023-02-13T00:18:28;8.20;98.40
23301;DHT22;11819;51.394;12.340;2023-02-13T00:21:00;8.20;98.30
23301;DHT22;11819;51.394;12.340;2023-02-13T00:23:26;8.20;98.30
23301;DHT22;11819;51.394;12.340;2023-02-13T00:25:52;8.30;98.30
23301;DHT22;11819;51.394;12.340;2023-02-13T00:28:18;8.30;98.30
23301;DHT22;11819;51.394;12.340;2023-02-13T00:30:43;8.30;98.20
23301;DHT22;11819;51.394;12.340;2023-02-13T00:33:09;8.20;98.20
23301;DHT22;11819;51.394;12.340;2023-02-13T00:35:35;8.20;98.20
23301;DHT22;11819;51.394;12.340;2023-02-13T00:38:01;8.20;98.10
23301;DHT22;11819;51.394;12.340;2023-02-13T00:40:26;8.20;98.10
23301;DHT22;11819;51.394;12.340;2023-02-13T00:42:52;8.10;98.10
23301;DHT22;11819;51.394;12.340;2023-02-13T00:45:19;8.10;98.20
23301;DHT22;11819;51.394;12.340;2023-02-13T00:47:45;8.10;98.30
23301;DHT22;11819;51.394;12.340;2023-02-13T00:50:11;8.10;98.30
23301;DHT22;11819;51.394;12.340;2023-02-13T00:52:36;8.10;98.30
23301;DHT22;11819;51.394;12.340;2023-02-13T00:55:03;8.00;98.30
23301;DHT22;11819;51.394;12.340;2023-02-13T00:57:29;8.00;98.40
23301;DHT22;11819;51.394;12.340;2023-02-13T00:59:56;8.10;98.50
23301;DHT22;11819;51.394;12.340;2023-02-13T01:02:23;8.00;98.40
23301;DHT22;11819;51.394;12.340;2023-02-13T01:04:49;8.00;98.40
23301;DHT22;11819;51.394;12.340;2023-02-13T01:07:14;8.00;98.40
23301;DHT22;11819;51.394;12.340;2023-02-13T01:09:43;8.00;98.40
23301;DHT22;11819;51.394;12.340;2023-02-13T01:12:08;8.00;98.30
23301;DHT22;11819;51.394;12.340;2023-02-13T01:14:34;7.90;98.30
23301;DHT22;11819;51.394;12.340;2023-02-13T01:17:00;7.90;98.40
23301;DHT22;11819;51.394;12.340;2023-02-13T01:19:26;8.00;98.50
23301;DHT22;11819;51.394;12.340;2023-02-13T01:21:51;8.00;98.50
23301;DHT22;11819;51.394;12.340;2023-02-13T01:24:17;8.00;98.50
23301;DHT22;11819;51.394;12.340;2023-02-13T01:26:43;8.10;98.50
23301;DHT22;11819;51.394;12.340;2023-02-13T01:29:11;8.10;98.40
23301;DHT22;11819;51.394;12.340;2023-02-13T01:31:38;8.00;98.30
23301;DHT22;11819;51.394;12.340;2023-02-13T01:34:04;8.00;98.30
23301;DHT22;11819;51.394;12.340;2023-02-13T01:36:29;8.00;98.40
23301;DHT22;11819;51.394;12.340;2023-02-13T01:38:57;8.10;98.40
23301;DHT22;11819;51.394;12.340;2023-02-13T01:41:24;8.10;98.40
23301;DHT22;11819;51.394;12.340;2023-02-13T01:43:55;8.10;98.30
23301;DHT22;11819;51.394;12.340;2023-02-13T01:46:41;8.10;98.10
23301;DHT22;11819;51.394;12.340;2023-02-13T01:49:16;8.10;98.10
23301;DHT22;11819;51.394;12.340;2023-02-13T01:51:44;8.10;98.10
23301;DHT22;11819;51.394;12.340;2023-02-13T01:54:13;8.10;98.00
23301;DHT22;11819;51.394;12.340;2023-02-13T01:56:53;8.10;98.00
23301;DHT22;11819;51.394;12.340;2023-02-13T01:59:23;8.10;98.10
23301;DHT22;11819;51.394;12.340;2023-02-13T02:01:50;8.00;97.90
23301;DHT22;11819;51.394;12.340;2023-02-13T02:04:23;8.00;98.00
23301;DHT22;11819;51.394;12.340;2023-02-13T02:06:55;8.00;98.10
23301;DHT22;11819;51.394;12.340;2023-02-13T02:09:28;8.00;98.00
23301;DHT22;11819;51.394;12.340;2023-02-13T02:12:41;8.00;98.00
23301;DHT22;11819;51.394;12.340;2023-02-13T02:14:48;8.00;97.90
23301;DHT22;11819;51.394;12.340;2023-02-13T02:17:16;8.00;97.90
23301;DHT22;11819;51.394;12.340;2023-02-13T02:34:30;7.90;98.10
23301;DHT22;11819;51.394;12.340;2023-02-13T02:40:01;7.90;98.10
23301;DHT22;11819;51.394;12.340;2023-02-13T02:53:43;7.80;98.20
23301;DHT22;11819;51.394;12.340;2023-02-13T02:56:36;7.80;98.10
23301;DHT22;11819;51.394;12.340;2023-02-13T02:59:15;7.80;98.10
23301;DHT22;11819;51.394;12.340;2023-02-13T03:02:01;7.80;97.90
23301;DHT22;11819;51.394;12.340;2023-02-13T03:04:53;7.70;98.00
23301;DHT22;11819;51.394;12.340;2023-02-13T03:07:39;7.80;98.00
23301;DHT22;11819;51.394;12.340;2023-02-13T03:10:09;7.80;98.00
23301;DHT22;11819;51.394;12.340;2023-02-13T03:13:02;7.80;97.90
23301;DHT22;11819;51.394;12.340;2023-02-13T03:15:55;7.70;97.80
23301;DHT22;11819;51.394;12.340;2023-02-13T03:18:43;7.70;97.80
23301;DHT22;11819;51.394;12.340;2023-02-13T03:21:48;7.70;97.80
23301;DHT22;11819;51.394;12.340;2023-02-13T03:31:20;7.70;97.70
23301;DHT22;11819;51.394;12.340;2023-02-13T03:34:03;7.60;97.70
23301;DHT22;11819;51.394;12.340;2023-02-13T03:36:58;7.60;97.80
23301;DHT22;11819;51.394;12.340;2023-02-13T03:40:08;7.60;97.80
23301;DHT22;11819;51.394;12.340;2023-02-13T03:42:47;7.60;97.80
23301;DHT22;11819;51.394;12.340;2023-02-13T03:45:21;7.60;97.80
23301;DHT22;11819;51.394;12.340;2023-02-13T03:48:17;7.60;97.70
23301;DHT22;11819;51.394;12.340;2023-02-13T03:51:03;7.60;97.60
23301;DHT22;11819;51.394;12.340;2023-02-13T03:53:32;7.60;97.60
23301;DHT22;11819;51.394;12.340;2023-02-13T03:56:01;7.50;97.60
23301;DHT22;11819;51.394;12.340;2023-02-13T03:58:49;7.50;97.60
23301;DHT22;11819;51.394;12.340;2023-02-13T04:01:36;7.50;97.60
23301;DHT22;11819;51.394;12.340;2023-02-13T04:07:01;7.40;97.80
23301;DHT22;11819;51.394;12.340;2023-02-13T04:09:29;7.30;97.80
23301;DHT22;11819;51.394;12.340;2023-02-13T04:14:49;7.30;98.00
23301;DHT22;11819;51.394;12.340;2023-02-13T04:17:25;7.30;98.00
23301;DHT22;11819;51.394;12.340;2023-02-13T04:19:52;7.30;98.10
23301;DHT22;11819;51.394;12.340;2023-02-13T04:22:18;7.30;98.20
23301;DHT22;11819;51.394;12.340;2023-02-13T04:24:43;7.20;98.20
23301;DHT22;11819;51.394;12.340;2023-02-13T04:27:13;7.20;98.30
23301;DHT22;11819;51.394;12.340;2023-02-13T04:29:39;7.20;98.30
23301;DHT22;11819;51.394;12.340;2023-02-13T04:32:05;7.30;98.40
23301;DHT22;11819;51.394;12.340;2023-02-13T04:34:30;7.20;98.30
23301;DHT22;11819;51.394;12.340;2023-02-13T04:36:56;7.20;98.40
23301;DHT22;11819;51.394;12.340;2023-02-13T04:39:21;7.30;98.50
23301;DHT22;11819;51.394;12.340;2023-02-13T04:41:47;7.30;98.50
23301;DHT22;11819;51.394;12.340;2023-02-13T04:44:12;7.30;98.40
23301;DHT22;11819;51.394;12.340;2023-02-13T04:46:38;7.30;98.40
23301;DHT22;11819;51.394;12.340;2023-02-13T04:49:03;7.30;98.50
23301;DHT22;11819;51.394;12.340;2023-02-13T04:51:29;7.20;98.50
23301;DHT22;11819;51.394;12.340;2023-02-13T04:53:54;7.20;98.50
23301;DHT22;11819;51.394;12.340;2023-02-13T04:56:20;7.20;98.50
23301;DHT22;11819;51.394;12.340;2023-02-13T04:58:46;7.20;98.50
23301;DHT22;11819;51.394;12.340;2023-02-13T05:01:15;7.30;98.90
23301;DHT22;11819;51.394;12.340;2023-02-13T05:03:41;7.20;98.40
23301;DHT22;11819;51.394;12.340;2023-02-13T05:06:07;7.20;98.40
23301;DHT22;11819;51.394;12.340;2023-02-13T05:08:33;7.20;98.50
23301;DHT22;11819;51.394;12.340;2023-02-13T05:10:58;7.10;98.50
23301;DHT22;11819;51.394;12.340;2023-02-13T05:13:24;7.10;98.50
23301;DHT22;11819;51.394;12.340;2023-02-13T05:15:50;7.20;98.50
23301;DHT22;11819;51.394;12.340;2023-02-13T05:18:17;7.20;98.60
23301;DHT22;11819;51.394;12.340;2023-02-13T05:20:43;7.20;98.50
23301;DHT22;11819;51.394;12.340;2023-02-13T05:23:13;7.20;98.40
23301;DHT22;11819;51.394;12.340;2023-02-13T05:25:48;7.20;98.40
23301;DHT22;11819;51.394;12.340;2023-02-13T05:28:14;7.20;98.40
23301;DHT22;11819;51.394;12.340;2023-02-13T05:30:59;7.20;98.40
23301;DHT22;11819;51.394;12.340;2023-02-13T05:33:25;7.30;98.40
23301;DHT22;11819;51.394;12.340;2023-02-13T05:35:50;7.30;98.30
23301;DHT22;11819;51.394;12.340;2023-02-13T05:38:16;7.30;98.20
23301;DHT22;11819;51.394;12.340;2023-02-13T05:40:41;7.30;98.10
23301;DHT22;11819;51.394;12.340;2023-02-13T05:43:07;7.30;98.40
23301;DHT22;11819;51.394;12.340;2023-02-13T05:45:33;7.30;97.90
23301;DHT22;11819;51.394;12.340;2023-02-13T05:47:58;7.30;97.90
23301;DHT22;11819;51.394;12.340;2023-02-13T05:50:24;7.20;97.80
23301;DHT22;11819;51.394;12.340;2023-02-13T05:52:49;7.20;97.80
23301;DHT22;11819;51.394;12.340;2023-02-13T05:55:15;7.20;97.90
23301;DHT22;11819;51.394;12.340;2023-02-13T05:57:40;7.20;97.90
23301;DHT22;11819;51.394;12.340;2023-02-13T06:00:07;7.20;98.00
23301;DHT22;11819;51.394;12.340;2023-02-13T06:02:33;7.10;97.90
23301;DHT22;11819;51.394;12.340;2023-02-13T06:04:58;7.10;97.90
23301;DHT22;11819;51.394;12.340;2023-02-13T06:07:24;7.10;98.00
23301;DHT22;11819;51.394;12.340;2023-02-13T06:09:49;7.10;98.10
23301;DHT22;11819;51.394;12.340;2023-02-13T06:12:15;7.10;98.20
23301;DHT22;11819;51.394;12.340;2023-02-13T06:14:40;7.10;98.20
23301;DHT22;11819;51.394;12.340;2023-02-13T06:17:06;7.10;98.20
23301;DHT22;11819;51.394;12.340;2023-02-13T06:19:32;7.10;98.20
23301;DHT22;11819;51.394;12.340;2023-02-13T06:21:58;7.10;98.20
23301;DHT22;11819;51.394;12.340;2023-02-13T06:24:23;7.00;98.20
23301;DHT22;11819;51.394;12.340;2023-02-13T06:26:49;7.00;98.30
23301;DHT22;11819;51.394;12.340;2023-02-13T06:29:14;7.00;98.30
23301;DHT22;11819;51.394;12.340;2023-02-13T06:31:40;7.10;98.40
23301;DHT22;11819;51.394;12.340;2023-02-13T06:34:05;7.00;98.30
23301;DHT22;11819;51.394;12.340;2023-02-13T06:36:31;7.00;98.30
23301;DHT22;11819;51.394;12.340;2023-02-13T06:38:56;7.10;98.40
23301;DHT22;11819;51.394;12.340;2023-02-13T06:41:22;7.10;98.40
23301;DHT22;11819;51.394;12.340;2023-02-13T06:43:47;7.10;98.30
23301;DHT22;11819;51.394;12.340;2023-02-13T06:46:13;7.10;98.30
23301;DHT22;11819;51.394;12.340;2023-02-13T06:48:39;7.10;98.30
23301;DHT22;11819;51.394;12.340;2023-02-13T06:51:04;7.10;98.30
23301;DHT22;11819;51.394;12.340;2023-02-13T06:53:30;7.10;98.30
23301;DHT22;11819;51.394;12.340;2023-02-13T06:55:56;7.10;98.20
23301;DHT22;11819;51.394;12.340;2023-02-13T06:58:23;7.10;98.30
23301;DHT22;11819;51.394;12.340;2023-02-13T07:00:50;7.20;98.30
23301;DHT22;11819;51.394;12.340;2023-02-13T07:03:16;7.20;98.20
23301;DHT22;11819;51.394;12.340;2023-02-13T07:05:43;7.30;98.20
23301;DHT22;11819;51.394;12.340;2023-02-13T07:08:12;7.30;98.20
23301;DHT22;11819;51.394;12.340;2023-02-13T07:10:39;7.40;98.20
23301;DHT22;11819;51.394;12.340;2023-02-13T07:13:04;7.40;98.10
23301;DHT22;11819;51.394;12.340;2023-02-13T07:15:33;7.40;98.00
23301;DHT22;11819;51.394;12.340;2023-02-13T07:17:59;7.50;98.00
23301;DHT22;11819;51.394;12.340;2023-02-13T07:20:26;7.50;98.00
23301;DHT22;11819;51.394;12.340;2023-02-13T07:22:51;7.60;97.90
23301;DHT22;11819;51.394;12.340;2023-02-13T07:25:17;7.50;97.60
23301;DHT22;11819;51.394;12.340;2023-02-13T07:27:43;7.50;97.50
23301;DHT22;11819;51.394;12.340;2023-02-13T07:30:09;7.50;97.50
23301;DHT22;11819;51.394;12.340;2023-02-13T07:32:34;7.40;97.50
23301;DHT22;11819;51.394;12.340;2023-02-13T07:35:00;7.40;97.50
23301;DHT22;11819;51.394;12.340;2023-02-13T07:37:30;7.40;97.50
23301;DHT22;11819;51.394;12.340;2023-02-13T07:39:55;7.40;97.40
23301;DHT22;11819;51.394;12.340;2023-02-13T07:42:21;7.40;97.50
23301;DHT22;11819;51.394;12.340;2023-02-13T07:44:47;7.50;97.50
23301;DHT22;11819;51.394;12.340;2023-02-13T07:47:12;7.50;97.40
23301;DHT22;11819;51.394;12.340;2023-02-13T07:49:38;7.50;97.30
23301;DHT22;11819;51.394;12.340;2023-02-13T07:52:04;7.50;97.20
23301;DHT22;11819;51.394;12.340;2023-02-13T07:54:30;7.50;97.10
23301;DHT22;11819;51.394;12.340;2023-02-13T07:56:56;7.50;97.10
23301;DHT22;11819;51.394;12.340;2023-02-13T07:59:22;7.40;96.90
23301;DHT22;11819;51.394;12.340;2023-02-13T08:01:47;7.40;96.90
23301;DHT22;11819;51.394;12.340;2023-02-13T08:04:13;7.40;96.90
23301;DHT22;11819;51.394;12.340;2023-02-13T08:06:39;7.40;96.80
23301;DHT22;11819;51.394;12.340;2023-02-13T08:09:05;7.50;97.00
23301;DHT22;11819;51.394;12.340;2023-02-13T08:11:51;7.60;97.00
23301;DHT22;11819;51.394;12.340;2023-02-13T08:14:24;7.70;96.80
23301;DHT22;11819;51.394;12.340;2023-02-13T08:16:52;7.70;96.30
23301;DHT22;11819;51.394;12.340;2023-02-13T08:19:18;7.70;96.20
23301;DHT22;11819;51.394;12.340;2023-02-13T08:21:44;7.70;96.20
23301;DHT22;11819;51.394;12.340;2023-02-13T08:24:10;7.70;96.10
23301;DHT22;11819;51.394;12.340;2023-02-13T08:26:36;7.70;95.90
23301;DHT22;11819;51.394;12.340;2023-02-13T08:29:02;7.70;95.80
23301;DHT22;11819;51.394;12.340;2023-02-13T08:31:28;7.70;96.20
23301;DHT22;11819;51.394;12.340;2023-02-13T08:33:55;7.70;95.70
23301;DHT22;11819;51.394;12.340;2023-02-13T08:36:22;7.70;95.60
23301;DHT22;11819;51.394;12.340;2023-02-13T08:38:48;7.70;95.60
23301;DHT22;11819;51.394;12.340;2023-02-13T08:41:14;7.70;95.60
23301;DHT22;11819;51.394;12.340;2023-02-13T08:43:42;7.70;95.70
23301;DHT22;11819;51.394;12.340;2023-02-13T08:46:07;7.70;95.70
23301;DHT22;11819;51.394;12.340;2023-02-13T08:48:33;7.70;96.00
23301;DHT22;11819;51.394;12.340;2023-02-13T08:50:58;7.70;95.30
23301;DHT22;11819;51.394;12.340;2023-02-13T08:53:24;7.70;95.10
23301;DHT22;11819;51.394;12.340;2023-02-13T08:55:54;7.70;95.20
23301;DHT22;11819;51.394;12.340;2023-02-13T08:58:21;7.70;95.20
23301;DHT22;11819;51.394;12.340;2023-02-13T09:00:46;7.70;95.00
23301;DHT22;11819;51.394;12.340;2023-02-13T09:03:12;7.70;94.90
23301;DHT22;11819;51.394;12.340;2023-02-13T09:05:37;7.70;94.70
23301;DHT22;11819;51.394;12.340;2023-02-13T09:08:03;7.70;94.70
23301;DHT22;11819;51.394;12.340;2023-02-13T09:10:30;7.60;94.60
23301;DHT22;11819;51.394;12.340;2023-02-13T09:12:56;7.70;94.80
23301;DHT22;11819;51.394;12.340;2023-02-13T09:15:21;7.70;94.70
23301;DHT22;11819;51.394;12.340;2023-02-13T09:17:47;7.70;94.70
23301;DHT22;11819;51.394;12.340;2023-02-13T09:20:13;7.70;94.60
23301;DHT22;11819;51.394;12.340;2023-02-13T09:22:39;7.70;94.50
23301;DHT22;11819;51.394;12.340;2023-02-13T09:25:06;7.70;94.60
23301;DHT22;11819;51.394;12.340;2023-02-13T09:27:32;7.60;94.40
23301;DHT22;11819;51.394;12.340;2023-02-13T09:29:58;7.60;94.50
23301;DHT22;11819;51.394;12.340;2023-02-13T09:32:24;7.60;94.50
23301;DHT22;11819;51.394;12.340;2023-02-13T09:34:50;7.70;94.60
23301;DHT22;11819;51.394;12.340;2023-02-13T09:37:15;7.70;95.10
23301;DHT22;11819;51.394;12.340;2023-02-13T09:39:44;7.80;94.70
23301;DHT22;11819;51.394;12.340;2023-02-13T09:42:25;7.90;94.30
23301;DHT22;11819;51.394;12.340;2023-02-13T09:44:58;7.90;94.30
23301;DHT22;11819;51.394;12.340;2023-02-13T09:50:09;8.00;94.20
23301;DHT22;11819;51.394;12.340;2023-02-13T09:52:36;8.00;94.10
23301;DHT22;11819;51.394;12.340;2023-02-13T09:55:20;8.00;93.80
23301;DHT22;11819;51.394;12.340;2023-02-13T09:58:07;7.90;93.70
23301;DHT22;11819;51.394;12.340;2023-02-13T10:00:42;7.90;93.90
23301;DHT22;11819;51.394;12.340;2023-02-13T10:05:59;7.80;93.90
23301;DHT22;11819;51.394;12.340;2023-02-13T10:11:38;7.90;94.10
23301;DHT22;11819;51.394;12.340;2023-02-13T10:14:26;7.90;94.10
23301;DHT22;11819;51.394;12.340;2023-02-13T10:17:10;7.90;94.10
23301;DHT22;11819;51.394;12.340;2023-02-13T10:19:58;7.90;94.10
23301;DHT22;11819;51.394;12.340;2023-02-13T10:22:42;7.90;94.00
23301;DHT22;11819;51.394;12.340;2023-02-13T10:25:21;8.00;94.20
23301;DHT22;11819;51.394;12.340;2023-02-13T10:27:59;8.00;94.00
23301;DHT22;11819;51.394;12.340;2023-02-13T10:30:35;8.00;94.00
23301;DHT22;11819;51.394;12.340;2023-02-13T10:33:11;8.00;93.60
23301;DHT22;11819;51.394;12.340;2023-02-13T10:36:11;7.90;93.60
23301;DHT22;11819;51.394;12.340;2023-02-13T10:39:08;7.90;93.60
23301;DHT22;11819;51.394;12.340;2023-02-13T10:44:45;7.90;93.60
23301;DHT22;11819;51.394;12.340;2023-02-13T10:58:40;8.10;93.10
23301;DHT22;11819;51.394;12.340;2023-02-13T11:01:17;8.10;93.00
23301;DHT22;11819;51.394;12.340;2023-02-13T11:03:43;8.10;92.90
23301;DHT22;11819;51.394;12.340;2023-02-13T11:06:15;8.20;92.90
23301;DHT22;11819;51.394;12.340;2023-02-13T11:08:45;8.20;92.60
23301;DHT22;11819;51.394;12.340;2023-02-13T11:11:33;8.20;92.40
23301;DHT22;11819;51.394;12.340;2023-02-13T11:14:20;8.10;92.30
23301;DHT22;11819;51.394;12.340;2023-02-13T11:19:24;8.10;91.90
23301;DHT22;11819;51.394;12.340;2023-02-13T11:22:07;8.20;92.10
23301;DHT22;11819;51.394;12.340;2023-02-13T11:24:33;8.30;92.10
23301;DHT22;11819;51.394;12.340;2023-02-13T11:27:02;8.30;92.00
23301;DHT22;11819;51.394;12.340;2023-02-13T11:29:37;8.40;91.90
23301;DHT22;11819;51.394;12.340;2023-02-13T11:32:19;8.50;91.60
23301;DHT22;11819;51.394;12.340;2023-02-13T11:34:45;8.50;91.40
23301;DHT22;11819;51.394;12.340;2023-02-13T11:39:41;8.50;90.80
23301;DHT22;11819;51.394;12.340;2023-02-13T11:42:20;8.40;90.80
23301;DHT22;11819;51.394;12.340;2023-02-13T11:44:51;8.50;90.90
23301;DHT22;11819;51.394;12.340;2023-02-13T11:47:39;8.40;90.80
23301;DHT22;11819;51.394;12.340;2023-02-13T11:50:27;8.40;90.80
23301;DHT22;11819;51.394;12.340;2023-02-13T11:53:17;8.30;90.90
23301;DHT22;11819;51.394;12.340;2023-02-13T11:55:45;8.30;90.90
23301;DHT22;11819;51.394;12.340;2023-02-13T11:58:28;8.30;90.90
23301;DHT22;11819;51.394;12.340;2023-02-13T12:04:16;8.30;91.10
23301;DHT22;11819;51.394;12.340;2023-02-13T12:07:02;8.30;91.20
23301;DHT22;11819;51.394;12.340;2023-02-13T12:09:29;8.40;91.20
23301;DHT22;11819;51.394;12.340;2023-02-13T12:12:00;8.40;91.10
23301;DHT22;11819;51.394;12.340;2023-02-13T12:14:32;8.40;91.20
23301;DHT22;11819;51.394;12.340;2023-02-13T12:17:04;8.40;91.40
23301;DHT22;11819;51.394;12.340;2023-02-13T12:19:43;8.30;91.10
23301;DHT22;11819;51.394;12.340;2023-02-13T12:22:24;8.30;91.20
23301;DHT22;11819;51.394;12.340;2023-02-13T12:25:45;8.30;91.10
23301;DHT22;11819;51.394;12.340;2023-02-13T12:28:11;8.30;91.30
23301;DHT22;11819;51.394;12.340;2023-02-13T12:33:31;8.30;91.30
23301;DHT22;11819;51.394;12.340;2023-02-13T12:36:20;8.30;91.30
23301;DHT22;11819;51.394;12.340;2023-02-13T12:39:56;8.30;91.40
23301;DHT22;11819;51.394;12.340;2023-02-13T12:45:15;8.30;91.30
23301;DHT22;11819;51.394;12.340;2023-02-13T12:48:02;8.20;91.20
23301;DHT22;11819;51.394;12.340;2023-02-13T13:05:00;8.10;91.70
23301;DHT22;11819;51.394;12.340;2023-02-13T13:10:50;8.20;91.70
23301;DHT22;11819;51.394;12.340;2023-02-13T13:16:32;8.20;91.60
23301;DHT22;11819;51.394;12.340;2023-02-13T13:19:23;8.20;91.60
23301;DHT22;11819;51.394;12.340;2023-02-13T13:22:04;8.20;91.70
23301;DHT22;11819;51.394;12.340;2023-02-13T13:27:10;8.20;91.60
23301;DHT22;11819;51.394;12.340;2023-02-13T13:29:47;8.20;91.60
23301;DHT22;11819;51.394;12.340;2023-02-13T13:32:18;8.20;91.70
23301;DHT22;11819;51.394;12.340;2023-02-13T13:34:46;8.20;91.60
23301;DHT22;11819;51.394;12.340;2023-02-13T13:37:32;8.30;91.60
23301;DHT22;11819;51.394;12.340;2023-02-13T13:42:55;8.40;91.70
23301;DHT22;11819;51.394;12.340;2023-02-13T13:45:28;8.40;91.50
23301;DHT22;11819;51.394;12.340;2023-02-13T13:50:59;8.40;91.30
23301;DHT22;11819;51.394;12.340;2023-02-13T13:53:25;8.50;91.40
23301;DHT22;11819;51.394;12.340;2023-02-13T13:58:43;8.60;91.50
23301;DHT22;11819;51.394;12.340;2023-02-13T14:01:28;8.60;91.40
23301;DHT22;11819;51.394;12.340;2023-02-13T14:09:05;8.50;91.20
23301;DHT22;11819;51.394;12.340;2023-02-13T14:11:41;8.50;91.10
23301;DHT22;11819;51.394;12.340;2023-02-13T14:16:52;8.50;90.90
23301;DHT22;11819;51.394;12.340;2023-02-13T14:19:38;8.50;90.80
23301;DHT22;11819;51.394;12.340;2023-02-13T14:24:52;8.30;91.10
23301;DHT22;11819;51.394;12.340;2023-02-13T14:27:33;8.30;91.20
23301;DHT22;11819;51.394;12.340;2023-02-13T14:29:59;8.30;91.20
23301;DHT22;11819;51.394;12.340;2023-02-13T14:32:33;8.20;91.30
23301;DHT22;11819;51.394;12.340;2023-02-13T14:35:02;8.20;91.30
23301;DHT22;11819;51.394;12.340;2023-02-13T14:37:32;8.30;91.50
23301;DHT22;11819;51.394;12.340;2023-02-13T14:40:31;8.40;91.50
23301;DHT22;11819;51.394;12.340;2023-02-13T14:43:21;8.40;91.30
23301;DHT22;11819;51.394;12.340;2023-02-13T14:46:02;8.40;91.30
23301;DHT22;11819;51.394;12.340;2023-02-13T14:48:36;8.50;91.20
23301;DHT22;11819;51.394;12.340;2023-02-13T14:51:05;8.50;91.30
23301;DHT22;11819;51.394;12.340;2023-02-13T14:53:46;8.50;91.20
23301;DHT22;11819;51.394;12.340;2023-02-13T14:56:17;8.50;91.20
23301;DHT22;11819;51.394;12.340;2023-02-13T14:59:10;8.40;91.10
23301;DHT22;11819;51.394;12.340;2023-02-13T15:01:46;8.40;91.10
23301;DHT22;11819;51.394;12.340;2023-02-13T15:04:30;8.30;91.20
23301;DHT22;11819;51.394;12.340;2023-02-13T15:07:01;8.20;91.30
23301;DHT22;11819;51.394;12.340;2023-02-13T15:09:38;8.20;91.40
23301;DHT22;11819;51.394;12.340;2023-02-13T15:12:28;8.20;91.50
23301;DHT22;11819;51.394;12.340;2023-02-13T15:14:55;8.20;91.60
23301;DHT22;11819;51.394;12.340;2023-02-13T15:17:26;8.20;91.70
23301;DHT22;11819;51.394;12.340;2023-02-13T15:20:02;8.20;91.70
23301;DHT22;11819;51.394;12.340;2023-02-13T15:22:32;8.20;91.60
23301;DHT22;11819;51.394;12.340;2023-02-13T15:24:58;8.20;91.60
23301;DHT22;11819;51.394;12.340;2023-02-13T15:27:26;8.10;91.60
23301;DHT22;11819;51.394;12.340;2023-02-13T15:30:33;8.10;91.60
23301;DHT22;11819;51.394;12.340;2023-02-13T15:33:00;8.10;91.60
23301;DHT22;11819;51.394;12.340;2023-02-13T15:35:35;8.10;91.70
23301;DHT22;11819;51.394;12.340;2023-02-13T15:38:18;8.10;91.80
23301;DHT22;11819;51.394;12.340;2023-02-13T15:40:44;8.10;91.70
23301;DHT22;11819;51.394;12.340;2023-02-13T15:43:37;8.00;91.60
23301;DHT22;11819;51.394;12.340;2023-02-13T15:46:05;8.00;91.70
23301;DHT22;11819;51.394;12.340;2023-02-13T15:48:33;7.90;91.60
23301;DHT22;11819;51.394;12.340;2023-02-13T15:51:00;7.90;91.70
23301;DHT22;11819;51.394;12.340;2023-02-13T15:53:26;7.90;91.70
23301;DHT22;11819;51.394;12.340;2023-02-13T15:56:01;7.90;91.70
23301;DHT22;11819;51.394;12.340;2023-02-13T15:58:30;7.90;91.70
23301;DHT22;11819;51.394;12.340;2023-02-13T16:01:00;7.90;91.60
23301;DHT22;11819;51.394;12.340;2023-02-13T16:03:27;7.90;91.60
23301;DHT22;11819;51.394;12.340;2023-02-13T16:05:55;7.80;91.60
23301;DHT22;11819;51.394;12.340;2023-02-13T16:13:35;7.80;92.00
23301;DHT22;11819;51.394;12.340;2023-02-13T16:16:08;7.80;92.00
23301;DHT22;11819;51.394;12.340;2023-02-13T16:18:34;7.70;92.10
23301;DHT22;11819;51.394;12.340;2023-02-13T16:21:00;7.70;92.10
23301;DHT22;11819;51.394;12.340;2023-02-13T16:23:27;7.70;92.50
23301;DHT22;11819;51.394;12.340;2023-02-13T16:26:00;7.60;92.60
23301;DHT22;11819;51.394;12.340;2023-02-13T16:28:29;7.60;92.30
23301;DHT22;11819;51.394;12.340;2023-02-13T16:31:01;7.70;92.40
23301;DHT22;11819;51.394;12.340;2023-02-13T16:33:29;7.70;92.40
23301;DHT22;11819;51.394;12.340;2023-02-13T16:35:59;7.70;92.40
23301;DHT22;11819;51.394;12.340;2023-02-13T16:38:34;7.70;92.40
23301;DHT22;11819;51.394;12.340;2023-02-13T16:51:34;7.70;92.40
23301;DHT22;11819;51.394;12.340;2023-02-13T16:54:13;7.70;92.30
23301;DHT22;11819;51.394;12.340;2023-02-13T16:56:40;7.70;92.30
23301;DHT22;11819;51.394;12.340;2023-02-13T17:01:45;7.60;92.50
23301;DHT22;11819;51.394;12.340;2023-02-13T17:04:24;7.60;92.50
23301;DHT22;11819;51.394;12.340;2023-02-13T17:06:55;7.60;92.50
23301;DHT22;11819;51.394;12.340;2023-02-13T17:09:21;7.60;92.50
23301;DHT22;11819;51.394;12.340;2023-02-13T17:11:51;7.60;92.50
23301;DHT22;11819;51.394;12.340;2023-02-13T17:14:17;7.70;92.40
23301;DHT22;11819;51.394;12.340;2023-02-13T17:16:47;7.70;92.40
23301;DHT22;11819;51.394;12.340;2023-02-13T17:19:13;7.70;92.40
23301;DHT22;11819;51.394;12.340;2023-02-13T17:21:39;7.70;92.40
23301;DHT22;11819;51.394;12.340;2023-02-13T17:24:05;7.70;92.40
23301;DHT22;11819;51.394;12.340;2023-02-13T17:26:32;7.60;92.40
23301;DHT22;11819;51.394;12.340;2023-02-13T17:28:58;7.60;92.50
23301;DHT22;11819;51.394;12.340;2023-02-13T17:31:23;7.60;92.50
23301;DHT22;11819;51.394;12.340;2023-02-13T17:33:49;7.60;92.50
23301;DHT22;11819;51.394;12.340;2023-02-13T17:36:14;7.60;92.50
23301;DHT22;11819;51.394;12.340;2023-02-13T17:38:40;7.60;92.40
23301;DHT22;11819;51.394;12.340;2023-02-13T17:41:12;7.60;92.50
23301;DHT22;11819;51.394;12.340;2023-02-13T17:43:38;7.60;92.50
23301;DHT22;11819;51.394;12.340;2023-02-13T17:46:04;7.50;92.50
23301;DHT22;11819;51.394;12.340;2023-02-13T17:48:30;7.50;92.60
23301;DHT22;11819;51.394;12.340;2023-02-13T17:50:55;7.50;92.70
23301;DHT22;11819;51.394;12.340;2023-02-13T17:53:30;7.50;92.70
23301;DHT22;11819;51.394;12.340;2023-02-13T17:55:56;7.50;92.70
23301;DHT22;11819;51.394;12.340;2023-02-13T17:58:22;7.50;92.70
23301;DHT22;11819;51.394;12.340;2023-02-13T18:00:48;7.50;92.80
23301;DHT22;11819;51.394;12.340;2023-02-13T18:03:13;7.50;92.70
23301;DHT22;11819;51.394;12.340;2023-02-13T18:05:39;7.50;92.70
23301;DHT22;11819;51.394;12.340;2023-02-13T18:08:05;7.50;92.70
23301;DHT22;11819;51.394;12.340;2023-02-13T18:10:33;7.50;92.70
23301;DHT22;11819;51.394;12.340;2023-02-13T18:12:59;7.50;92.80
23301;DHT22;11819;51.394;12.340;2023-02-13T18:15:39;7.50;92.80